createdAt,value
2018-09-17T00:00:52.035Z,24.07
2018-09-17T00:03:22.301Z,24.13
2018-09-17T00:05:52.634Z,24.11
2018-09-17T00:08:22.902Z,24.03
2018-09-17T00:10:53.557Z,23.83
2018-09-17T00:13:24.159Z,23.68
2018-09-17T00:15:56.238Z,23.53
2018-09-17T00:18:26.528Z,23.39
2018-09-17T00:20:56.857Z,23.23
2018-09-17T00:23:26.549Z,23.20
2018-09-17T00:25:56.830Z,23.18
2018-09-17T00:28:27.025Z,23.20
2018-09-17T00:30:58.897Z,23.12
2018-09-17T00:33:29.517Z,23.06
2018-09-17T00:35:58.906Z,22.96
2018-09-17T00:38:29.469Z,22.78
2018-09-17T00:41:00.775Z,22.62
2018-09-17T00:43:32.418Z,22.59
2018-09-17T00:46:02.804Z,22.47
2018-09-17T00:48:33.105Z,22.36
2018-09-17T00:51:03.748Z,22.37
2018-09-17T00:53:34.278Z,22.38
2018-09-17T00:56:04.153Z,22.34
2018-09-17T00:58:34.448Z,22.26
2018-09-17T01:01:04.774Z,22.18
2018-09-17T01:03:34.559Z,22.22
2018-09-17T01:06:05.025Z,22.21
2018-09-17T01:08:35.809Z,22.14
2018-09-17T01:11:06.114Z,22.13
2018-09-17T01:16:09.564Z,22.07
2018-09-17T01:18:40.642Z,21.92
2018-09-17T01:21:11.169Z,21.84
2018-09-17T01:24:13.558Z,21.85
2018-09-17T01:26:43.593Z,21.97
2018-09-17T01:29:13.200Z,21.83
2018-09-17T01:31:42.541Z,21.64
2018-09-17T01:34:12.801Z,21.08
2018-09-17T01:36:42.993Z,21.62
2018-09-17T01:39:12.970Z,21.69
2018-09-17T01:41:42.934Z,21.71
2018-09-17T01:44:13.264Z,21.68
2018-09-17T01:46:44.792Z,21.80
2018-09-17T01:49:14.198Z,22.16
2018-09-17T01:51:43.546Z,22.12
2018-09-17T01:54:13.793Z,21.79
2018-09-17T01:56:43.161Z,21.17
2018-09-17T01:59:12.912Z,21.68
2018-09-17T02:01:43.138Z,21.65
2018-09-17T02:04:13.131Z,21.70
2018-09-17T02:06:44.693Z,21.64
2018-09-17T02:09:14.117Z,21.67
2018-09-17T02:11:44.870Z,21.60
2018-09-17T02:14:14.701Z,21.65
2018-09-17T02:16:48.564Z,21.65
2018-09-17T02:19:17.992Z,21.59
2018-09-17T02:21:47.778Z,21.70
2018-09-17T02:24:17.305Z,21.86
2018-09-17T02:26:46.609Z,21.90
2018-09-17T02:29:16.202Z,21.77
2018-09-17T02:31:47.061Z,21.73
2018-09-17T02:34:16.526Z,21.57
2018-09-17T02:36:47.126Z,21.45
2018-09-17T02:39:16.457Z,21.31
2018-09-17T02:41:45.910Z,21.17
2018-09-17T02:44:16.642Z,21.08
2018-09-17T02:46:46.205Z,21.06
2018-09-17T02:49:15.616Z,21.05
2018-09-17T02:51:45.810Z,20.88
2018-09-17T02:54:15.334Z,20.87
2018-09-17T02:56:45.694Z,20.89
2018-09-17T02:59:15.234Z,20.97
2018-09-17T03:01:44.557Z,20.96
2018-09-17T03:04:13.857Z,20.97
2018-09-17T03:06:45.045Z,21.01
2018-09-17T03:09:14.945Z,20.95
2018-09-17T03:11:44.286Z,20.86
2018-09-17T03:14:15.515Z,20.72
2018-09-17T03:16:55.618Z,20.61
2018-09-17T03:19:25.038Z,20.48
2018-09-17T03:21:54.388Z,20.65
2018-09-17T03:24:23.759Z,20.55
2018-09-17T03:26:53.255Z,20.55
2018-09-17T03:29:22.633Z,20.64
2018-09-17T03:31:52.033Z,20.64
2018-09-17T03:34:22.333Z,20.56
2018-09-17T03:36:51.711Z,20.64
2018-09-17T03:39:22.861Z,20.82
2018-09-17T03:41:52.616Z,20.90
2018-09-17T03:44:21.946Z,21.01
2018-09-17T03:46:51.383Z,21.00
2018-09-17T03:49:22.723Z,20.35
2018-09-17T03:51:52.835Z,20.14
2018-09-17T03:54:23.395Z,20.69
2018-09-17T03:56:52.729Z,20.72
2018-09-17T03:59:22.129Z,20.59
2018-09-17T04:01:53.370Z,20.62
2018-09-17T04:04:28.869Z,20.52
2018-09-17T04:07:06.134Z,20.39
2018-09-17T04:09:41.331Z,20.43
2018-09-17T04:12:17.352Z,20.42
2018-09-17T04:14:47.600Z,20.42
2018-09-17T04:17:18.184Z,20.19
2018-09-17T04:19:47.548Z,20.40
2018-09-17T04:22:18.696Z,20.34
2018-09-17T04:24:48.518Z,20.24
2018-09-17T04:27:18.634Z,20.29
2018-09-17T04:29:47.942Z,20.20
2018-09-17T04:32:24.914Z,20.10
2018-09-17T04:35:00.840Z,20.13
2018-09-17T04:37:32.796Z,20.14
2018-09-17T04:40:05.685Z,20.11
2018-09-17T04:42:38.032Z,20.15
2018-09-17T04:45:08.410Z,20.19
2018-09-17T04:47:37.872Z,20.20
2018-09-17T04:50:07.733Z,20.13
2018-09-17T04:52:50.596Z,20.13
2018-09-17T04:55:29.305Z,20.16
2018-09-17T04:57:58.962Z,20.21
2018-09-17T05:00:28.506Z,20.23
2018-09-17T05:02:58.785Z,20.35
2018-09-17T05:05:31.151Z,19.84
2018-09-17T05:08:00.910Z,19.95
2018-09-17T05:10:31.277Z,19.47
2018-09-17T05:13:00.655Z,19.93
2018-09-17T05:15:30.564Z,20.07
2018-09-17T05:17:59.890Z,20.16
2018-09-17T05:20:29.391Z,20.17
2018-09-17T05:22:59.023Z,20.16
2018-09-17T05:27:58.120Z,20.23
2018-09-17T05:30:27.541Z,20.29
2018-09-17T05:32:58.264Z,20.28
2018-09-17T05:35:27.917Z,20.31
2018-09-17T05:37:57.695Z,20.62
2018-09-17T05:40:27.442Z,21.09
2018-09-17T05:42:56.862Z,22.04
2018-09-17T05:45:26.653Z,22.74
2018-09-17T05:47:57.190Z,23.29
2018-09-17T05:50:27.624Z,23.71
2018-09-17T05:52:57.080Z,24.02
2018-09-17T05:55:26.408Z,24.26
2018-09-17T05:57:55.689Z,24.48
2018-09-17T06:00:26.488Z,24.78
2018-09-17T06:02:55.953Z,25.14
2018-09-17T06:05:25.438Z,25.40
2018-09-17T06:07:56.229Z,25.76
2018-09-17T06:10:25.661Z,26.16
2018-09-17T06:12:55.364Z,26.68
2018-09-17T06:15:26.221Z,26.97
2018-09-17T06:17:56.164Z,26.64
2018-09-17T06:20:25.853Z,27.33
2018-09-17T06:22:55.266Z,27.49
2018-09-17T06:25:26.176Z,27.73
2018-09-17T06:27:56.359Z,27.84
2018-09-17T06:33:03.404Z,28.05
2018-09-17T06:35:32.905Z,28.42
2018-09-17T06:38:02.305Z,28.73
2018-09-17T06:40:32.789Z,28.90
2018-09-17T06:43:03.417Z,28.90
2018-09-17T06:45:33.457Z,28.89
2018-09-17T06:48:05.633Z,29.04
2018-09-17T06:50:35.047Z,29.19
2018-09-17T06:53:04.548Z,29.69
2018-09-17T06:55:35.197Z,29.82
2018-09-17T06:58:04.819Z,29.35
2018-09-17T07:00:35.221Z,29.73
2018-09-17T07:03:04.984Z,30.23
2018-09-17T07:05:35.838Z,29.98
2018-09-17T07:08:05.280Z,29.58
2018-09-17T07:10:35.864Z,29.28
2018-09-17T07:13:08.087Z,29.23
2018-09-17T07:15:37.557Z,29.26
2018-09-17T07:18:07.334Z,29.02
2018-09-17T07:20:36.909Z,28.96
2018-09-17T07:23:06.711Z,29.08
2018-09-17T07:25:36.589Z,29.13
2018-09-17T07:28:08.316Z,29.11
2018-09-17T07:30:39.248Z,29.06
2018-09-17T07:33:09.197Z,29.09
2018-09-17T07:35:40.807Z,29.29
2018-09-17T07:38:12.041Z,29.45
2018-09-17T07:40:41.456Z,29.50
2018-09-17T07:43:10.872Z,29.72
2018-09-17T07:45:41.663Z,30.06
2018-09-17T07:48:11.594Z,30.05
2018-09-17T07:50:41.019Z,29.85
2018-09-17T07:53:10.639Z,29.04
2018-09-17T07:55:40.343Z,28.82
2018-09-17T07:58:09.817Z,28.65
2018-09-17T08:00:39.339Z,28.83
2018-09-17T08:03:08.787Z,29.20
2018-09-17T08:05:39.176Z,28.89
2018-09-17T08:08:08.853Z,28.82
2018-09-17T08:10:38.407Z,28.95
2018-09-17T08:13:08.825Z,29.01
2018-09-17T08:15:38.332Z,29.36
2018-09-17T08:18:08.735Z,29.73
2018-09-17T08:20:38.709Z,29.86
2018-09-17T08:23:11.363Z,29.81
2018-09-17T08:25:42.845Z,29.61
2018-09-17T08:28:12.945Z,29.75
2018-09-17T08:30:46.694Z,29.83
2018-09-17T08:33:19.824Z,30.31
2018-09-17T08:35:51.411Z,29.94
2018-09-17T08:38:20.929Z,30.55
2018-09-17T08:40:52.358Z,30.49
2018-09-17T08:43:22.352Z,30.73
2018-09-17T08:45:51.676Z,30.93
2018-09-17T08:48:22.558Z,31.26
2018-09-17T08:50:52.649Z,31.73
2018-09-17T08:53:24.235Z,31.78
2018-09-17T08:55:59.286Z,31.59
2018-09-17T08:58:34.256Z,31.41
2018-09-17T09:01:09.678Z,31.59
2018-09-17T09:06:36.070Z,32.55
2018-09-17T09:09:15.111Z,32.73
2018-09-17T09:12:04.452Z,32.97
2018-09-17T09:14:39.824Z,33.12
2018-09-17T09:17:12.037Z,33.22
2018-09-17T09:19:46.624Z,33.61
2018-09-17T09:22:23.700Z,33.89
2018-09-17T09:25:10.642Z,33.77
2018-09-17T09:27:43.327Z,33.81
2018-09-17T09:30:15.821Z,33.93
2018-09-17T09:32:46.454Z,33.99
2018-09-17T09:35:17.245Z,34.33
2018-09-17T09:37:50.061Z,34.92
2018-09-17T09:40:21.573Z,34.71
2018-09-17T09:42:52.325Z,34.38
2018-09-17T09:45:31.438Z,34.50
2018-09-17T09:48:03.242Z,34.77
2018-09-17T09:50:33.624Z,34.84
2018-09-17T09:53:04.319Z,34.58
2018-09-17T09:55:41.357Z,34.55
2018-09-17T09:58:12.316Z,34.73
2018-09-17T10:00:51.225Z,34.83
2018-09-17T10:03:27.229Z,35.34
2018-09-17T10:06:00.385Z,35.48
2018-09-17T10:08:32.395Z,35.44
2018-09-17T10:11:07.097Z,36.50
2018-09-17T10:13:42.336Z,36.61
2018-09-17T10:16:18.321Z,36.54
2018-09-17T10:18:52.766Z,36.73
2018-09-17T10:21:23.548Z,36.47
2018-09-17T10:23:53.814Z,36.63
2018-09-17T10:26:26.644Z,36.76
2018-09-17T10:28:57.473Z,36.34
2018-09-17T10:31:27.877Z,36.01
2018-09-17T10:34:02.544Z,35.92
2018-09-17T10:36:33.662Z,36.18
2018-09-17T10:39:05.883Z,36.49
2018-09-17T10:41:35.591Z,36.47
2018-09-17T10:44:05.891Z,36.43
2018-09-17T10:46:39.482Z,36.50
2018-09-17T10:49:09.352Z,37.01
2018-09-17T10:51:40.073Z,37.31
2018-09-17T10:54:10.256Z,37.57
2018-09-17T10:56:41.260Z,37.48
2018-09-17T10:59:10.625Z,37.22
2018-09-17T11:01:40.680Z,37.03
2018-09-17T11:04:12.194Z,36.70
2018-09-17T11:06:44.686Z,36.86
2018-09-17T11:09:14.189Z,37.00
2018-09-17T11:11:50.350Z,37.72
2018-09-17T11:14:21.196Z,38.24
2018-09-17T11:16:50.689Z,38.52
2018-09-17T11:19:21.659Z,38.20
2018-09-17T11:21:52.521Z,38.10
2018-09-17T11:24:23.759Z,37.99
2018-09-17T11:26:55.217Z,38.34
2018-09-17T11:29:25.180Z,38.25
2018-09-17T11:31:59.476Z,38.19
2018-09-17T11:34:30.380Z,38.13
2018-09-17T11:37:01.745Z,38.92
2018-09-17T11:39:34.282Z,39.29
2018-09-17T11:42:05.871Z,39.42
2018-09-17T11:44:36.441Z,39.13
2018-09-17T11:47:06.893Z,39.07
2018-09-17T11:49:38.305Z,38.79
2018-09-17T11:52:09.353Z,38.84
2018-09-17T11:54:43.687Z,39.23
2018-09-17T11:57:14.071Z,39.48
2018-09-17T11:59:47.905Z,39.37
2018-09-17T12:02:23.290Z,39.21
2018-09-17T12:04:57.297Z,38.85
2018-09-17T12:07:40.563Z,39.04
2018-09-17T12:10:11.898Z,38.92
2018-09-17T12:12:43.628Z,38.55
2018-09-17T12:15:15.641Z,38.34
2018-09-17T12:17:45.993Z,38.54
2018-09-17T12:20:16.835Z,38.99
2018-09-17T12:22:48.909Z,39.17
2018-09-17T12:25:21.514Z,39.17
2018-09-17T12:27:51.905Z,39.02
2018-09-17T12:30:24.311Z,38.93
2018-09-17T12:32:54.651Z,39.52
2018-09-17T12:41:30.644Z,39.46
2018-09-17T12:44:03.142Z,39.71
2018-09-17T12:46:35.185Z,39.59
2018-09-17T12:49:05.358Z,39.44
2018-09-17T12:51:38.992Z,39.24
2018-09-17T12:54:09.453Z,39.22
2018-09-17T12:56:40.998Z,39.22
2018-09-17T12:59:11.267Z,39.31
2018-09-17T13:01:41.909Z,39.10
2018-09-17T13:04:13.345Z,39.19
2018-09-17T13:06:44.217Z,38.87
2018-09-17T13:09:16.681Z,39.06
2018-09-17T13:11:49.625Z,39.15
2018-09-17T13:14:19.968Z,38.91
2018-09-17T13:16:50.288Z,39.10
2018-09-17T13:19:21.108Z,38.55
2018-09-17T13:21:52.911Z,38.61
2018-09-17T13:24:23.220Z,38.87
2018-09-17T13:26:53.547Z,38.67
2018-09-17T13:29:24.775Z,38.96
2018-09-17T13:31:57.588Z,39.12
2018-09-17T13:34:29.000Z,39.24
2018-09-17T13:36:59.339Z,39.47
2018-09-17T13:39:29.630Z,39.24
2018-09-17T13:42:01.426Z,38.95
2018-09-17T13:44:32.948Z,39.29
2018-09-17T13:47:05.454Z,38.81
2018-09-17T13:49:35.708Z,38.66
2018-09-17T13:52:06.047Z,38.39
2018-09-17T13:54:36.947Z,38.41
2018-09-17T13:57:08.135Z,38.81
2018-09-17T13:59:39.443Z,38.44
2018-09-17T14:02:09.880Z,38.90
2018-09-17T14:04:41.741Z,39.09
2018-09-17T14:07:12.177Z,39.59
2018-09-17T14:09:43.071Z,39.77
2018-09-17T14:12:13.375Z,39.54
2018-09-17T14:14:45.437Z,39.60
2018-09-17T14:17:17.233Z,39.29
2018-09-17T14:19:48.297Z,39.55
2018-09-17T14:22:19.263Z,39.98
2018-09-17T14:24:51.357Z,40.11
2018-09-17T14:27:22.458Z,40.13
2018-09-17T14:29:53.622Z,40.56
2018-09-17T14:32:32.296Z,40.94
2018-09-17T14:35:15.077Z,40.79
2018-09-17T14:40:56.849Z,40.48
2018-09-17T14:43:43.112Z,39.96
2018-09-17T14:46:17.489Z,39.72
2018-09-17T14:48:54.142Z,39.61
2018-09-17T14:51:26.381Z,39.82
2018-09-17T14:54:02.631Z,40.11
2018-09-17T14:56:37.482Z,40.54
2018-09-17T14:59:09.337Z,40.59
2018-09-17T15:01:43.193Z,40.48
2018-09-17T15:04:17.479Z,40.18
2018-09-17T15:06:50.854Z,40.19
2018-09-17T15:09:21.290Z,40.19
2018-09-17T15:11:52.903Z,40.21
2018-09-17T15:14:23.550Z,40.44
2018-09-17T15:17:01.034Z,41.11
2018-09-17T15:19:36.726Z,40.99
2018-09-17T15:22:08.889Z,40.81
2018-09-17T15:24:40.374Z,40.77
2018-09-17T15:27:11.654Z,40.65
2018-09-17T15:29:44.201Z,40.98
2018-09-17T15:32:15.598Z,40.70
2018-09-17T15:34:47.905Z,40.33
2018-09-17T15:37:20.711Z,40.30
2018-09-17T15:39:51.438Z,39.99
2018-09-17T15:42:21.887Z,39.71
2018-09-17T15:44:52.892Z,39.64
2018-09-17T15:47:25.050Z,39.79
2018-09-17T15:49:59.099Z,39.78
2018-09-17T15:52:31.619Z,39.86
2018-09-17T15:55:04.948Z,40.33
2018-09-17T15:57:35.693Z,40.24
2018-09-17T16:00:06.277Z,40.01
2018-09-17T16:02:37.453Z,39.95
2018-09-17T16:05:09.423Z,39.90
2018-09-17T16:07:41.506Z,39.67
2018-09-17T16:10:16.614Z,39.67
2018-09-17T16:12:46.900Z,39.60
2018-09-17T16:15:19.034Z,39.33
2018-09-17T16:17:49.425Z,39.07
2018-09-17T16:20:20.690Z,38.66
2018-09-17T16:22:50.913Z,38.73
2018-09-17T16:25:22.379Z,38.13
2018-09-17T16:27:54.161Z,38.42
2018-09-17T16:30:25.872Z,38.18
2018-09-17T16:32:56.625Z,38.03
2018-09-17T16:35:27.168Z,38.02
2018-09-17T16:37:59.578Z,37.82
2018-09-17T16:40:31.927Z,37.56
2018-09-17T16:43:03.868Z,37.34
2018-09-17T16:45:35.032Z,37.04
2018-09-17T16:48:05.343Z,37.13
2018-09-17T16:50:37.245Z,37.01
2018-09-17T16:53:09.661Z,36.71
2018-09-17T16:55:40.457Z,36.58
2018-09-17T16:58:17.013Z,36.50
2018-09-17T17:00:47.870Z,36.32
2018-09-17T17:03:20.672Z,36.19
2018-09-17T17:05:51.941Z,36.04
2018-09-17T17:08:24.430Z,35.41
2018-09-17T17:10:56.524Z,35.71
2018-09-17T17:13:32.578Z,35.53
2018-09-17T17:16:03.490Z,35.47
2018-09-17T17:18:35.463Z,35.45
2018-09-17T17:21:07.748Z,35.12
2018-09-17T17:23:42.403Z,34.89
2018-09-17T17:26:13.487Z,34.78
2018-09-17T17:28:45.828Z,34.49
2018-09-17T17:31:16.133Z,34.18
2018-09-17T17:33:47.638Z,33.74
2018-09-17T17:36:18.790Z,33.42
2018-09-17T17:38:49.073Z,33.12
2018-09-17T17:41:20.582Z,32.77
2018-09-17T17:43:51.778Z,32.66
2018-09-17T17:46:22.060Z,32.45
2018-09-17T17:48:52.661Z,32.16
2018-09-17T17:51:27.093Z,31.97
2018-09-17T17:53:59.554Z,31.83
2018-09-17T17:56:29.013Z,31.73
2018-09-17T17:59:01.003Z,31.63
2018-09-17T18:01:33.295Z,31.68
2018-09-17T18:04:05.802Z,31.34
2018-09-17T18:06:37.855Z,31.34
2018-09-17T18:09:12.045Z,31.05
2018-09-17T18:11:45.801Z,30.83
2018-09-17T18:14:15.979Z,30.50
2018-09-17T18:16:51.361Z,30.32
2018-09-17T18:19:21.490Z,30.25
2018-09-17T18:21:53.045Z,30.08
2018-09-17T18:24:22.389Z,29.92
2018-09-17T18:26:55.254Z,29.88
2018-09-17T18:29:24.822Z,29.82
2018-09-17T18:31:56.220Z,29.66
2018-09-17T18:34:26.873Z,29.55
2018-09-17T18:36:59.279Z,29.59
2018-09-17T18:39:29.808Z,29.49
2018-09-17T18:42:00.310Z,29.30
2018-09-17T18:44:30.263Z,29.47
2018-09-17T18:47:02.348Z,29.40
2018-09-17T18:49:39.644Z,29.24
2018-09-17T18:52:15.334Z,28.84
2018-09-17T18:54:45.650Z,28.78
2018-09-17T18:57:19.069Z,28.77
2018-09-17T18:59:49.566Z,29.04
2018-09-17T19:02:21.339Z,29.04
2018-09-17T19:04:50.761Z,29.05
2018-09-17T19:07:22.973Z,29.09
2018-09-17T19:09:54.423Z,28.99
2018-09-17T19:12:26.278Z,29.03
2018-09-17T19:15:02.222Z,28.46
2018-09-17T19:17:37.262Z,28.96
2018-09-17T19:20:08.538Z,28.92
2018-09-17T19:22:45.032Z,28.91
2018-09-17T19:25:15.841Z,28.78
2018-09-17T19:27:51.844Z,28.74
2018-09-17T19:30:26.486Z,28.77
2018-09-17T19:33:01.244Z,28.81
2018-09-17T19:35:35.557Z,28.82
2018-09-17T19:38:09.952Z,28.71
2018-09-17T19:40:44.162Z,28.57
2018-09-17T19:43:30.831Z,28.51
2018-09-17T19:46:11.264Z,28.34
2018-09-17T19:48:44.380Z,28.33
2018-09-17T19:51:19.396Z,28.30
2018-09-17T19:53:49.934Z,28.33
2018-09-17T19:56:20.055Z,28.25
2018-09-17T19:58:55.237Z,28.14
2018-09-17T20:01:27.256Z,28.07
2018-09-17T20:04:02.221Z,28.03
2018-09-17T20:06:34.793Z,28.06
2018-09-17T20:09:07.838Z,28.01
2018-09-17T20:11:39.466Z,27.93
2018-09-17T20:14:12.558Z,27.22
2018-09-17T20:16:43.955Z,27.84
2018-09-17T20:19:13.879Z,27.74
2018-09-17T20:21:44.417Z,27.72
2018-09-17T20:24:17.609Z,27.56
2018-09-17T20:26:50.562Z,27.45
2018-09-17T20:29:21.065Z,27.46
2018-09-17T20:31:53.871Z,27.44
2018-09-17T20:34:26.907Z,27.45
2018-09-17T20:36:57.547Z,27.30
2018-09-17T20:39:28.105Z,27.44
2018-09-17T20:41:58.616Z,27.50
2018-09-17T20:44:29.222Z,27.39
2018-09-17T20:49:32.560Z,27.49
2018-09-17T20:52:02.603Z,27.58
2018-09-17T20:54:33.528Z,27.59
2018-09-17T20:57:03.850Z,27.57
2018-09-17T20:59:34.422Z,27.52
2018-09-17T21:04:24.573Z,27.44
2018-09-17T21:06:56.291Z,27.30
2018-09-17T21:09:27.552Z,27.26
2018-09-17T21:11:57.253Z,27.23
2018-09-17T21:14:27.391Z,26.63
2018-09-17T21:17:00.185Z,27.14
2018-09-17T21:19:30.651Z,27.06
2018-09-17T21:22:01.028Z,26.93
2018-09-17T21:24:32.204Z,26.89
2018-09-17T21:27:02.364Z,26.72
2018-09-17T21:29:32.558Z,26.75
2018-09-17T21:32:01.901Z,26.75
2018-09-17T21:34:31.353Z,26.77
2018-09-17T21:37:01.479Z,26.71
2018-09-17T21:39:30.973Z,26.74
2018-09-17T21:42:01.606Z,26.69
2018-09-17T21:44:33.502Z,26.53
2018-09-17T21:47:03.742Z,26.49
2018-09-17T21:49:33.236Z,26.59
2018-09-17T21:52:14.337Z,26.60
2018-09-17T21:54:47.457Z,26.60
2018-09-17T21:57:22.261Z,26.49
2018-09-17T21:59:51.646Z,26.37
2018-09-17T22:02:21.388Z,26.39
2018-09-17T22:04:51.020Z,26.38
2018-09-17T22:07:20.427Z,26.43
2018-09-17T22:09:53.430Z,26.31
2018-09-17T22:12:22.729Z,26.31
2018-09-17T22:14:52.157Z,26.13
2018-09-17T22:17:21.589Z,26.04
2018-09-17T22:19:50.984Z,25.99
2018-09-17T22:22:21.242Z,25.89
2018-09-17T22:24:51.598Z,25.83
2018-09-17T22:27:23.698Z,25.83
2018-09-17T22:29:53.097Z,25.81
2018-09-17T22:32:23.261Z,25.74
2018-09-17T22:34:53.510Z,25.75
2018-09-17T22:37:23.736Z,25.77
2018-09-17T22:39:53.084Z,25.82
2018-09-17T22:42:22.539Z,25.57
2018-09-17T22:44:53.871Z,25.86
2018-09-17T22:47:23.318Z,25.78
2018-09-17T22:49:52.757Z,25.78
2018-09-17T22:52:22.200Z,25.82
2018-09-17T22:54:52.042Z,25.78
2018-09-17T22:57:21.540Z,25.82
2018-09-17T22:59:50.944Z,25.82
2018-09-17T23:02:20.673Z,25.83
2018-09-17T23:04:50.024Z,25.76
2018-09-17T23:07:20.226Z,25.26
2018-09-17T23:09:51.347Z,25.67
2018-09-17T23:12:20.814Z,25.47
2018-09-17T23:14:50.350Z,25.48
2018-09-17T23:17:22.588Z,25.48
2018-09-17T23:19:52.000Z,25.51
2018-09-17T23:22:22.030Z,25.53
2018-09-17T23:24:53.684Z,25.48
2018-09-17T23:27:23.142Z,25.56
2018-09-17T23:29:53.200Z,25.58
2018-09-17T23:32:22.890Z,25.49
2018-09-17T23:34:52.240Z,25.49
2018-09-17T23:37:22.477Z,25.52
2018-09-17T23:39:52.201Z,25.39
2018-09-17T23:42:21.695Z,25.20
2018-09-17T23:44:51.157Z,25.21
2018-09-17T23:47:21.942Z,25.29
2018-09-17T23:49:52.480Z,25.34
2018-09-17T23:52:23.153Z,25.36
2018-09-17T23:54:53.098Z,25.36
2018-09-17T23:57:22.602Z,25.44
2018-09-17T23:59:51.956Z,25.39
